createdAt,value
2023-05-17T00:01:48.141Z,100.00
2023-05-17T00:04:16.087Z,100.00
2023-05-17T00:06:43.915Z,100.00
2023-05-17T00:09:10.432Z,100.00
2023-05-17T00:11:37.053Z,100.00
2023-05-17T00:14:03.725Z,100.00
2023-05-17T00:16:30.286Z,100.00
2023-05-17T00:18:56.859Z,100.00
2023-05-17T00:21:25.148Z,100.00
2023-05-17T00:23:51.732Z,100.00
2023-05-17T00:26:18.253Z,100.00
2023-05-17T00:28:44.788Z,100.00
2023-05-17T00:31:11.401Z,100.00
2023-05-17T00:33:37.974Z,100.00
2023-05-17T00:36:05.426Z,100.00
2023-05-17T00:38:33.404Z,100.00
2023-05-17T00:41:00.002Z,100.00
2023-05-17T00:43:27.276Z,100.00
2023-05-17T00:45:53.851Z,100.00
2023-05-17T00:48:20.784Z,100.00
2023-05-17T00:50:48.059Z,100.00
2023-05-17T00:53:14.830Z,100.00
2023-05-17T00:55:43.285Z,100.00
2023-05-17T00:58:10.387Z,100.00
2023-05-17T01:00:37.515Z,100.00
2023-05-17T01:03:04.131Z,100.00
2023-05-17T01:05:31.073Z,100.00
2023-05-17T01:07:57.690Z,100.00
2023-05-17T01:10:31.032Z,100.00
2023-05-17T01:13:05.931Z,100.00
2023-05-17T01:15:36.642Z,100.00
2023-05-17T01:18:12.341Z,100.00
2023-05-17T01:20:41.906Z,100.00
2023-05-17T01:23:24.136Z,100.00
2023-05-17T01:25:57.415Z,100.00
2023-05-17T01:28:26.379Z,100.00
2023-05-17T01:30:57.481Z,100.00
2023-05-17T01:33:24.433Z,100.00
2023-05-17T01:35:51.126Z,100.00
2023-05-17T01:38:17.700Z,100.00
2023-05-17T01:40:52.126Z,100.00
2023-05-17T01:43:24.757Z,100.00
2023-05-17T01:46:00.691Z,100.00
2023-05-17T01:48:34.846Z,100.00
2023-05-17T01:51:02.467Z,100.00
2023-05-17T01:53:32.930Z,100.00
2023-05-17T01:56:03.942Z,100.00
2023-05-17T01:58:30.937Z,100.00
2023-05-17T02:01:01.142Z,100.00
2023-05-17T02:03:28.176Z,100.00
2023-05-17T02:05:54.819Z,100.00
2023-05-17T02:08:21.395Z,100.00
2023-05-17T02:10:47.956Z,100.00
2023-05-17T02:13:14.510Z,100.00
2023-05-17T02:15:41.073Z,100.00
2023-05-17T02:18:09.124Z,100.00
2023-05-17T02:20:35.771Z,100.00
2023-05-17T02:23:02.302Z,100.00
2023-05-17T02:25:29.074Z,100.00
2023-05-17T02:27:55.838Z,100.00
2023-05-17T02:30:22.396Z,100.00
2023-05-17T02:32:49.050Z,100.00
2023-05-17T02:35:17.091Z,100.00
2023-05-17T02:37:43.830Z,100.00
2023-05-17T02:40:10.986Z,100.00
2023-05-17T02:42:37.627Z,100.00
2023-05-17T02:45:04.833Z,100.00
2023-05-17T02:47:31.453Z,100.00
2023-05-17T02:49:58.095Z,100.00
2023-05-17T02:52:26.010Z,100.00
2023-05-17T02:54:52.513Z,100.00
2023-05-17T02:57:19.035Z,100.00
2023-05-17T02:59:45.570Z,100.00
2023-05-17T03:02:12.210Z,100.00
2023-05-17T03:04:38.880Z,100.00
2023-05-17T03:07:07.237Z,100.00
2023-05-17T03:09:35.683Z,100.00
2023-05-17T03:12:02.249Z,100.00
2023-05-17T03:14:28.784Z,100.00
2023-05-17T03:16:55.312Z,100.00
2023-05-17T03:19:21.963Z,100.00
2023-05-17T03:21:48.624Z,100.00
2023-05-17T03:24:15.226Z,100.00
2023-05-17T03:26:43.105Z,100.00
2023-05-17T03:29:09.645Z,100.00
2023-05-17T03:31:36.395Z,100.00
2023-05-17T03:34:03.058Z,100.00
2023-05-17T03:36:29.847Z,100.00
2023-05-17T03:38:56.397Z,100.00
2023-05-17T03:41:23.175Z,100.00
2023-05-17T03:43:51.104Z,100.00
2023-05-17T03:46:17.661Z,100.00
2023-05-17T03:48:44.265Z,100.00
2023-05-17T03:51:10.933Z,100.00
2023-05-17T03:53:37.484Z,100.00
2023-05-17T03:56:04.562Z,100.00
2023-05-17T03:58:31.139Z,100.00
2023-05-17T04:00:59.014Z,100.00
2023-05-17T04:03:25.697Z,100.00
2023-05-17T04:05:52.270Z,100.00
2023-05-17T04:08:18.781Z,100.00
2023-05-17T04:10:45.316Z,100.00
2023-05-17T04:13:11.866Z,100.00
2023-05-17T04:15:38.449Z,100.00
2023-05-17T04:18:06.671Z,100.00
2023-05-17T04:20:33.344Z,100.00
2023-05-17T04:22:59.900Z,100.00
2023-05-17T04:25:26.568Z,100.00
2023-05-17T04:27:53.277Z,100.00
2023-05-17T04:30:19.804Z,100.00
2023-05-17T04:32:46.342Z,100.00
2023-05-17T04:35:14.346Z,100.00
2023-05-17T04:37:40.886Z,100.00
2023-05-17T04:40:09.495Z,100.00
2023-05-17T04:42:36.058Z,100.00
2023-05-17T04:45:02.632Z,100.00
2023-05-17T04:47:29.284Z,100.00
2023-05-17T04:49:55.956Z,100.00
2023-05-17T04:52:23.823Z,100.00
2023-05-17T04:54:50.383Z,100.00
2023-05-17T04:57:16.930Z,100.00
2023-05-17T04:59:43.459Z,100.00
2023-05-17T05:02:10.055Z,100.00
2023-05-17T05:04:36.624Z,100.00
2023-05-17T05:07:03.144Z,100.00
2023-05-17T05:09:31.137Z,100.00
2023-05-17T05:11:57.763Z,100.00
2023-05-17T05:14:24.275Z,100.00
2023-05-17T05:16:50.829Z,100.00
2023-05-17T05:19:17.450Z,100.00
2023-05-17T05:21:45.294Z,100.00
2023-05-17T05:24:11.929Z,100.00
2023-05-17T05:26:39.812Z,100.00
2023-05-17T05:29:06.372Z,100.00
2023-05-17T05:31:32.912Z,100.00
2023-05-17T05:33:59.543Z,100.00
2023-05-17T05:36:26.143Z,100.00
2023-05-17T05:38:52.668Z,100.00
2023-05-17T05:41:19.204Z,100.00
2023-05-17T05:43:47.053Z,100.00
2023-05-17T05:46:13.702Z,100.00
2023-05-17T05:48:40.303Z,100.00
2023-05-17T05:51:06.937Z,100.00
2023-05-17T05:53:33.520Z,100.00
2023-05-17T05:56:00.071Z,100.00
2023-05-17T05:58:26.679Z,100.00
2023-05-17T06:00:54.570Z,100.00
2023-05-17T06:03:21.240Z,100.00
2023-05-17T06:05:47.857Z,100.00
2023-05-17T06:08:14.529Z,100.00
2023-05-17T06:10:41.138Z,100.00
2023-05-17T06:13:07.701Z,100.00
2023-05-17T06:15:34.254Z,100.00
2023-05-17T06:18:02.449Z,100.00
2023-05-17T06:20:29.262Z,100.00
2023-05-17T06:22:56.019Z,100.00
2023-05-17T06:25:22.560Z,100.00
2023-05-17T06:27:49.127Z,100.00
2023-05-17T06:30:15.663Z,100.00
2023-05-17T06:32:42.286Z,100.00
2023-05-17T06:35:11.189Z,100.00
2023-05-17T06:37:37.801Z,100.00
2023-05-17T06:40:15.075Z,100.00
2023-05-17T06:42:42.495Z,100.00
2023-05-17T06:45:10.541Z,100.00
2023-05-17T06:47:37.211Z,100.00
2023-05-17T06:50:04.079Z,100.00
2023-05-17T06:52:31.976Z,100.00
2023-05-17T06:54:58.534Z,100.00
2023-05-17T06:57:25.092Z,100.00
2023-05-17T06:59:51.631Z,100.00
2023-05-17T07:02:18.215Z,100.00
2023-05-17T07:04:44.806Z,100.00
2023-05-17T07:07:11.348Z,100.00
2023-05-17T07:09:39.250Z,100.00
2023-05-17T07:12:06.385Z,100.00
2023-05-17T07:14:33.035Z,100.00
2023-05-17T07:16:59.657Z,100.00
2023-05-17T07:19:27.286Z,100.00
2023-05-17T07:21:53.925Z,100.00
2023-05-17T07:24:20.498Z,100.00
2023-05-17T07:26:49.768Z,100.00
2023-05-17T07:29:17.388Z,100.00
2023-05-17T07:31:43.950Z,100.00
2023-05-17T07:34:10.508Z,100.00
2023-05-17T07:36:37.252Z,100.00
2023-05-17T07:39:03.991Z,100.00
2023-05-17T07:41:30.626Z,100.00
2023-05-17T07:43:58.552Z,100.00
2023-05-17T07:46:25.543Z,100.00
2023-05-17T07:48:52.376Z,100.00
2023-05-17T07:51:19.383Z,100.00
2023-05-17T07:53:46.043Z,100.00
2023-05-17T07:56:12.598Z,100.00
2023-05-17T07:58:39.210Z,100.00
2023-05-17T08:01:07.104Z,100.00
2023-05-17T08:03:33.834Z,100.00
2023-05-17T08:06:00.437Z,100.00
2023-05-17T08:08:27.101Z,100.00
2023-05-17T08:10:53.974Z,100.00
2023-05-17T08:13:20.517Z,100.00
2023-05-17T08:15:47.111Z,100.00
2023-05-17T08:18:15.491Z,100.00
2023-05-17T08:20:43.209Z,100.00
2023-05-17T08:23:09.832Z,100.00
2023-05-17T08:25:36.432Z,100.00
2023-05-17T08:28:03.244Z,100.00
2023-05-17T08:30:29.812Z,100.00
2023-05-17T08:32:56.626Z,100.00
2023-05-17T08:35:27.737Z,100.00
2023-05-17T08:37:55.320Z,100.00
2023-05-17T08:40:22.162Z,100.00
2023-05-17T08:42:50.275Z,100.00
2023-05-17T08:45:17.619Z,100.00
2023-05-17T08:47:45.551Z,100.00
2023-05-17T08:50:12.791Z,100.00
2023-05-17T08:52:45.674Z,100.00
2023-05-17T08:55:12.610Z,100.00
2023-05-17T08:57:39.411Z,100.00
2023-05-17T09:00:07.425Z,100.00
2023-05-17T09:02:34.062Z,100.00
2023-05-17T09:05:00.778Z,100.00
2023-05-17T09:07:27.402Z,100.00
2023-05-17T09:09:55.351Z,100.00
2023-05-17T09:12:24.794Z,100.00
2023-05-17T09:14:52.177Z,100.00
2023-05-17T09:17:20.654Z,100.00
2023-05-17T09:19:48.794Z,100.00
2023-05-17T09:22:17.890Z,100.00
2023-05-17T09:24:44.692Z,100.00
2023-05-17T09:27:17.979Z,100.00
2023-05-17T09:29:45.209Z,100.00
2023-05-17T09:32:16.479Z,100.00
2023-05-17T09:34:44.919Z,100.00
2023-05-17T09:37:15.373Z,100.00
2023-05-17T09:39:42.405Z,100.00
2023-05-17T09:42:08.957Z,100.00
2023-05-17T09:44:47.820Z,100.00
2023-05-17T09:47:22.952Z,100.00
2023-05-17T09:49:49.615Z,100.00
2023-05-17T09:52:17.990Z,100.00
2023-05-17T09:54:51.788Z,100.00
2023-05-17T09:57:18.487Z,100.00
2023-05-17T09:59:47.437Z,100.00
2023-05-17T10:02:20.020Z,100.00
2023-05-17T10:04:48.369Z,100.00
2023-05-17T10:07:17.735Z,100.00
2023-05-17T10:09:44.548Z,100.00
2023-05-17T10:12:13.534Z,100.00
2023-05-17T10:14:40.630Z,100.00
2023-05-17T10:17:09.048Z,100.00
2023-05-17T10:19:36.656Z,100.00
2023-05-17T10:22:18.861Z,100.00
2023-05-17T10:24:50.162Z,100.00
2023-05-17T10:27:17.440Z,100.00
2023-05-17T10:29:47.023Z,100.00
2023-05-17T10:32:18.990Z,100.00
2023-05-17T10:34:47.532Z,100.00
2023-05-17T10:37:19.664Z,100.00
2023-05-17T10:39:46.302Z,100.00
2023-05-17T10:42:15.650Z,100.00
2023-05-17T10:44:42.727Z,100.00
2023-05-17T10:47:10.505Z,100.00
2023-05-17T10:49:39.066Z,100.00
2023-05-17T10:52:12.309Z,100.00
2023-05-17T10:54:41.589Z,100.00
2023-05-17T10:57:09.121Z,100.00
2023-05-17T10:59:36.046Z,100.00
2023-05-17T11:02:04.539Z,100.00
2023-05-17T11:04:35.995Z,100.00
2023-05-17T11:07:26.007Z,100.00
2023-05-17T11:09:54.621Z,100.00
2023-05-17T11:12:33.804Z,100.00
2023-05-17T11:15:01.533Z,100.00
2023-05-17T11:20:05.480Z,100.00
2023-05-17T11:22:37.845Z,100.00
2023-05-17T11:25:09.448Z,100.00
2023-05-17T11:27:37.576Z,100.00
2023-05-17T11:30:17.671Z,100.00
2023-05-17T11:32:47.379Z,100.00
2023-05-17T11:35:14.056Z,100.00
2023-05-17T11:37:43.792Z,100.00
2023-05-17T11:40:11.192Z,100.00
2023-05-17T11:42:37.860Z,100.00
2023-05-17T11:45:05.663Z,100.00
2023-05-17T11:47:32.865Z,99.98
2023-05-17T11:50:01.747Z,100.00
2023-05-17T11:52:29.315Z,100.00
2023-05-17T11:54:58.526Z,100.00
2023-05-17T11:57:30.106Z,94.43
2023-05-17T12:00:00.603Z,95.12
2023-05-17T12:02:27.983Z,93.98
2023-05-17T12:04:54.836Z,95.15
2023-05-17T12:07:21.725Z,99.65
2023-05-17T12:09:48.553Z,98.46
2023-05-17T12:12:16.808Z,89.32
2023-05-17T12:14:43.937Z,93.16
2023-05-17T12:17:17.113Z,91.16
2023-05-17T12:19:43.814Z,92.79
2023-05-17T12:22:12.581Z,86.30
2023-05-17T12:24:40.046Z,82.45
2023-05-17T12:27:06.793Z,82.60
2023-05-17T12:29:34.751Z,77.09
2023-05-17T12:32:01.920Z,71.46
2023-05-17T12:34:30.053Z,68.69
2023-05-17T12:36:57.707Z,69.17
2023-05-17T12:39:24.856Z,70.15
2023-05-17T12:41:52.024Z,65.61
2023-05-17T12:44:19.957Z,69.38
2023-05-17T12:46:48.282Z,74.72
2023-05-17T12:49:14.988Z,70.93
2023-05-17T12:51:43.267Z,71.77
2023-05-17T12:54:10.631Z,73.44
2023-05-17T12:56:37.192Z,72.77
2023-05-17T12:59:05.017Z,75.88
2023-05-17T13:01:35.772Z,70.25
2023-05-17T13:04:04.279Z,70.15
2023-05-17T13:06:43.834Z,68.46
2023-05-17T13:09:10.494Z,71.52
2023-05-17T13:11:37.268Z,68.77
2023-05-17T13:14:03.855Z,68.15
2023-05-17T13:16:30.596Z,68.74
2023-05-17T13:18:57.237Z,68.35
2023-05-17T13:21:25.282Z,71.23
2023-05-17T13:23:51.840Z,68.17
2023-05-17T13:26:19.346Z,70.14
2023-05-17T13:28:45.922Z,76.10
2023-05-17T13:31:12.484Z,75.08
2023-05-17T13:33:39.134Z,71.77
2023-05-17T13:36:06.109Z,70.54
2023-05-17T13:38:34.067Z,69.73
2023-05-17T13:41:00.592Z,69.99
2023-05-17T13:43:27.183Z,68.94
2023-05-17T13:45:53.740Z,71.58
2023-05-17T13:48:20.660Z,71.80
2023-05-17T13:50:47.456Z,63.21
2023-05-17T13:53:13.963Z,66.45
2023-05-17T13:55:41.851Z,65.89
2023-05-17T13:58:08.393Z,67.96
2023-05-17T14:00:34.969Z,65.09
2023-05-17T14:03:01.633Z,61.60
2023-05-17T14:05:28.458Z,65.39
2023-05-17T14:07:54.995Z,64.07
2023-05-17T14:10:21.510Z,67.98
2023-05-17T14:12:49.369Z,71.54
2023-05-17T14:15:15.963Z,71.56
2023-05-17T14:17:42.622Z,69.33
2023-05-17T14:20:10.352Z,65.95
2023-05-17T14:22:36.984Z,62.47
2023-05-17T14:25:03.889Z,64.41
2023-05-17T14:27:30.415Z,66.17
2023-05-17T14:29:58.339Z,68.53
2023-05-17T14:32:24.921Z,70.89
2023-05-17T14:34:51.430Z,70.65
2023-05-17T14:37:18.002Z,67.44
2023-05-17T14:39:55.247Z,69.01
2023-05-17T14:42:31.145Z,68.38
2023-05-17T14:44:59.337Z,64.96
2023-05-17T14:47:25.854Z,65.85
2023-05-17T14:49:52.640Z,64.85
2023-05-17T14:52:19.198Z,65.33
2023-05-17T14:54:45.742Z,66.49
2023-05-17T14:57:12.238Z,65.45
2023-05-17T14:59:38.861Z,65.46
2023-05-17T15:02:06.861Z,69.89
2023-05-17T15:04:33.511Z,75.93
2023-05-17T15:07:00.094Z,76.60
2023-05-17T15:09:26.736Z,72.91
2023-05-17T15:11:53.276Z,66.90
2023-05-17T15:14:19.869Z,67.76
2023-05-17T15:16:46.554Z,66.71
2023-05-17T15:19:14.742Z,66.44
2023-05-17T15:21:41.472Z,68.73
2023-05-17T15:24:08.246Z,70.14
2023-05-17T15:26:35.089Z,70.39
2023-05-17T15:29:01.632Z,69.94
2023-05-17T15:31:28.416Z,69.49
2023-05-17T15:33:55.584Z,68.26
2023-05-17T15:36:23.761Z,70.54
2023-05-17T15:38:50.308Z,69.35
2023-05-17T15:41:17.981Z,71.21
2023-05-17T15:43:44.596Z,72.24
2023-05-17T15:46:11.136Z,72.65
2023-05-17T15:48:37.844Z,66.95
2023-05-17T15:51:04.871Z,68.32
2023-05-17T15:53:33.504Z,66.51
2023-05-17T15:56:00.060Z,66.31
2023-05-17T15:58:27.020Z,67.22
2023-05-17T16:00:54.037Z,72.82
2023-05-17T16:03:20.968Z,68.43
2023-05-17T16:05:47.552Z,70.86
2023-05-17T16:08:14.161Z,70.97
2023-05-17T16:10:42.073Z,69.64
2023-05-17T16:13:08.642Z,70.79
2023-05-17T16:15:35.173Z,70.32
2023-05-17T16:18:01.833Z,74.61
2023-05-17T16:20:28.460Z,77.01
2023-05-17T16:22:55.032Z,74.86
2023-05-17T16:25:23.435Z,72.65
2023-05-17T16:27:51.756Z,69.03
2023-05-17T16:30:19.214Z,71.39
2023-05-17T16:32:46.681Z,72.48
2023-05-17T16:35:13.376Z,71.07
2023-05-17T16:37:40.026Z,71.18
2023-05-17T16:40:07.921Z,70.16
2023-05-17T16:42:34.440Z,73.11
2023-05-17T16:45:02.420Z,71.45
2023-05-17T16:47:29.050Z,68.33
2023-05-17T16:49:55.777Z,72.26
2023-05-17T16:52:22.922Z,71.86
2023-05-17T16:54:49.467Z,73.34
2023-05-17T16:57:16.114Z,74.37
2023-05-17T16:59:42.672Z,71.87
2023-05-17T17:02:10.891Z,72.11
2023-05-17T17:04:37.426Z,72.12
2023-05-17T17:07:04.451Z,71.38
2023-05-17T17:09:30.995Z,70.52
2023-05-17T17:11:57.527Z,70.45
2023-05-17T17:14:24.063Z,72.03
2023-05-17T17:16:50.614Z,76.06
2023-05-17T17:19:18.782Z,73.03
2023-05-17T17:21:45.468Z,74.79
2023-05-17T17:24:12.042Z,77.49
2023-05-17T17:26:38.600Z,78.75
2023-05-17T17:29:05.374Z,74.13
2023-05-17T17:31:32.351Z,74.89
2023-05-17T17:33:58.937Z,75.65
2023-05-17T17:36:26.887Z,75.29
2023-05-17T17:38:53.468Z,74.92
2023-05-17T17:41:20.165Z,76.06
2023-05-17T17:43:46.824Z,75.19
2023-05-17T17:46:13.381Z,74.75
2023-05-17T17:48:39.951Z,77.04
2023-05-17T17:51:06.485Z,78.07
2023-05-17T17:53:34.375Z,76.68
2023-05-17T17:56:00.908Z,76.50
2023-05-17T17:58:27.464Z,77.25
2023-05-17T18:00:54.035Z,78.37
2023-05-17T18:03:20.597Z,79.73
2023-05-17T18:05:47.137Z,83.58
2023-05-17T18:08:13.686Z,79.76
2023-05-17T18:10:41.602Z,77.87
2023-05-17T18:13:08.120Z,77.47
2023-05-17T18:15:34.815Z,75.96
2023-05-17T18:18:01.413Z,77.64
2023-05-17T18:20:28.183Z,78.48
2023-05-17T18:22:54.901Z,76.85
2023-05-17T18:25:21.828Z,74.66
2023-05-17T18:27:49.688Z,75.58
2023-05-17T18:30:17.186Z,75.82
2023-05-17T18:32:43.827Z,78.97
2023-05-17T18:35:10.717Z,78.83
2023-05-17T18:37:37.251Z,77.06
2023-05-17T18:40:04.375Z,78.32
2023-05-17T18:42:30.980Z,79.43
2023-05-17T18:44:58.941Z,81.08
2023-05-17T18:47:25.785Z,82.89
2023-05-17T18:49:52.398Z,85.41
2023-05-17T18:52:19.002Z,89.17
2023-05-17T18:54:45.576Z,91.67
2023-05-17T18:57:12.146Z,92.44
2023-05-17T18:59:38.672Z,92.93
2023-05-17T19:02:07.095Z,98.74
2023-05-17T19:04:33.888Z,96.98
2023-05-17T19:07:00.529Z,98.41
2023-05-17T19:09:27.091Z,98.83
2023-05-17T19:11:53.646Z,100.00
2023-05-17T19:14:20.186Z,100.00
2023-05-17T19:16:46.738Z,100.00
2023-05-17T19:19:14.769Z,100.00
2023-05-17T19:21:41.384Z,100.00
2023-05-17T19:24:08.069Z,100.00
2023-05-17T19:26:34.723Z,100.00
2023-05-17T19:29:01.264Z,100.00
2023-05-17T19:31:27.849Z,100.00
2023-05-17T19:33:54.503Z,100.00
2023-05-17T19:36:22.496Z,100.00
2023-05-17T19:38:51.256Z,100.00
2023-05-17T19:41:18.710Z,100.00
2023-05-17T19:43:45.314Z,100.00
2023-05-17T19:46:11.877Z,100.00
2023-05-17T19:48:38.398Z,100.00
2023-05-17T19:51:05.006Z,100.00
2023-05-17T19:53:47.957Z,100.00
2023-05-17T19:56:18.830Z,100.00
2023-05-17T19:58:45.452Z,100.00
2023-05-17T20:01:12.003Z,100.00
2023-05-17T20:03:38.589Z,100.00
2023-05-17T20:06:05.286Z,100.00
2023-05-17T20:08:33.204Z,100.00
2023-05-17T20:10:59.764Z,100.00
2023-05-17T20:13:26.356Z,100.00
2023-05-17T20:15:52.930Z,100.00
2023-05-17T20:18:19.524Z,100.00
2023-05-17T20:20:46.098Z,100.00
2023-05-17T20:23:12.663Z,100.00
2023-05-17T20:25:40.584Z,100.00
2023-05-17T20:28:07.341Z,100.00
2023-05-17T20:30:33.973Z,100.00
2023-05-17T20:33:00.519Z,100.00
2023-05-17T20:35:27.083Z,100.00
2023-05-17T20:37:53.662Z,100.00
2023-05-17T20:40:20.261Z,100.00
2023-05-17T20:42:48.154Z,100.00
2023-05-17T20:45:14.820Z,100.00
2023-05-17T20:47:41.452Z,100.00
2023-05-17T20:50:09.386Z,100.00
2023-05-17T20:52:39.262Z,100.00
2023-05-17T20:55:07.510Z,100.00
2023-05-17T20:57:34.066Z,100.00
2023-05-17T21:00:01.991Z,100.00
2023-05-17T21:02:28.643Z,100.00
2023-05-17T21:04:55.294Z,100.00
2023-05-17T21:07:22.124Z,100.00
2023-05-17T21:09:48.655Z,100.00
2023-05-17T21:12:15.230Z,100.00
2023-05-17T21:14:41.961Z,100.00
2023-05-17T21:17:09.846Z,100.00
2023-05-17T21:19:36.361Z,100.00
2023-05-17T21:22:03.114Z,100.00
2023-05-17T21:24:29.728Z,100.00
2023-05-17T21:26:56.258Z,100.00
2023-05-17T21:29:22.925Z,100.00
2023-05-17T21:31:49.627Z,100.00
2023-05-17T21:34:17.608Z,100.00
2023-05-17T21:36:44.239Z,100.00
2023-05-17T21:39:10.803Z,100.00
2023-05-17T21:41:37.381Z,100.00
2023-05-17T21:44:04.174Z,100.00
2023-05-17T21:46:30.774Z,100.00
2023-05-17T21:48:57.393Z,100.00
2023-05-17T21:51:25.401Z,100.00
2023-05-17T21:53:51.983Z,100.00
2023-05-17T21:56:18.503Z,100.00
2023-05-17T21:58:45.011Z,100.00
2023-05-17T22:01:11.630Z,100.00
2023-05-17T22:03:38.260Z,100.00
2023-05-17T22:06:05.482Z,100.00
2023-05-17T22:08:33.355Z,100.00
2023-05-17T22:10:59.963Z,100.00
2023-05-17T22:13:26.978Z,100.00
2023-05-17T22:15:53.784Z,100.00
2023-05-17T22:18:20.313Z,100.00
2023-05-17T22:20:47.021Z,100.00
2023-05-17T22:23:13.576Z,100.00
2023-05-17T22:25:41.549Z,100.00
2023-05-17T22:28:08.093Z,100.00
2023-05-17T22:30:34.736Z,100.00
2023-05-17T22:33:01.332Z,100.00
2023-05-17T22:35:28.049Z,100.00
2023-05-17T22:37:54.573Z,100.00
2023-05-17T22:40:21.219Z,100.00
2023-05-17T22:42:49.189Z,100.00
2023-05-17T22:45:15.709Z,100.00
2023-05-17T22:47:42.427Z,100.00
2023-05-17T22:50:10.152Z,100.00
2023-05-17T22:52:36.760Z,100.00
2023-05-17T22:55:03.613Z,100.00
2023-05-17T22:57:30.134Z,100.00
2023-05-17T22:59:58.048Z,100.00
2023-05-17T23:02:24.607Z,100.00
2023-05-17T23:04:51.202Z,100.00
2023-05-17T23:07:17.726Z,100.00
2023-05-17T23:09:44.297Z,100.00
2023-05-17T23:12:10.883Z,100.00
2023-05-17T23:14:37.460Z,100.00
2023-05-17T23:17:05.797Z,100.00
2023-05-17T23:19:33.300Z,100.00
2023-05-17T23:22:00.207Z,100.00
2023-05-17T23:24:26.716Z,100.00
2023-05-17T23:26:53.235Z,100.00
2023-05-17T23:29:19.751Z,100.00
2023-05-17T23:31:46.296Z,100.00
2023-05-17T23:34:14.344Z,100.00
2023-05-17T23:36:40.965Z,100.00
2023-05-17T23:39:07.663Z,100.00
2023-05-17T23:41:34.299Z,100.00
2023-05-17T23:44:00.817Z,100.00
2023-05-17T23:46:27.371Z,100.00
2023-05-17T23:48:53.960Z,100.00
2023-05-17T23:51:21.901Z,100.00
2023-05-17T23:53:48.493Z,100.00
2023-05-17T23:56:15.531Z,100.00
2023-05-17T23:58:42.132Z,100.00
